This is the latest recevied weather packets stored in our database for station/object W5ZYX. If no packets are shown the sender has not sent any weather packets the latest 10 day(s).
| Time | Temp. | Humidity | Pressure | Rain* | Wind** | Luminosity | Snow |
|---|---|---|---|---|---|---|---|
| 1777862138 | 16.67° C | 78% | 1018 hPa | 0 mm | - | - | - |
| 1777861852 | 17.22° C | 77% | 1018 hPa | 0 mm | - | - | - |
| 1777861535 | 17.22° C | 78% | 1017.9 hPa | 0 mm | - | - | - |
| 1777861236 | 17.22° C | 79% | 1017.8 hPa | 0 mm | - | - | - |
| 1777860952 | 17.78° C | 78% | 1017.9 hPa | 0 mm | - | - | - |
| 1777860635 | 17.78° C | 77% | 1017.9 hPa | 0 mm | - | - | - |
| 1777860337 | 18.33° C | 79% | 1017.9 hPa | 0 mm | - | - | - |
| 1777860059 | 18.33° C | 76% | 1017.9 hPa | 0 mm | - | - | - |
| 1777859736 | 18.33° C | 74% | 1017.8 hPa | 0 mm | - | - | - |
| 1777859436 | 18.89° C | 71% | 1017.9 hPa | 0 mm | - | - | - |
| 1777859153 | 19.44° C | 71% | 1017.9 hPa | 0 mm | - | - | - |
| 1777858836 | 19.44° C | 69% | 1017.8 hPa | 0 mm | - | - | - |
| 1777858536 | 20° C | 69% | 1017.7 hPa | 0 mm | - | - | - |
| 1777858249 | 20.56° C | 69% | 1017.6 hPa | 0 mm | - | - | - |
| 1777857938 | 20.56° C | 67% | 1017.7 hPa | 0 mm | - | - | - |
| 1777857639 | 21.11° C | 65% | 1017.7 hPa | 0 mm | - | - | - |
| 1777857350 | 21.11° C | 64% | 1017.8 hPa | 0 mm | - | - | - |
| 1777857035 | 21.67° C | 64% | 1017.6 hPa | 0 mm | - | - | - |
| 1777856737 | 21.67° C | 63% | 1017.6 hPa | 0 mm | - | - | - |
| 1777856446 | 21.67° C | 62% | 1017.6 hPa | 0 mm | - | - | - |
| 1777856138 | 22.22° C | 63% | 1017.5 hPa | 0 mm | - | - | - |
| 1777855836 | 22.78° C | 59% | 1017.6 hPa | 0 mm | - | - | - |
| 1777855549 | 22.78° C | 57% | 1017.7 hPa | 0 mm | - | - | - |
| 1777855236 | 22.78° C | 56% | 1017.7 hPa | 0 mm | - | - | - |
| 1777854936 | 23.33° C | 56% | 1017.7 hPa | 0 mm | - | - | - |
* Rain latest hour (hover to see other rain measurements)
** Current wind speed in m/s (hover to see current wind gust speed)